x

Nantucket Sound (44020) Wave Buoy

1:50 - Sat 1st Nov 2014 All times are EDT. -4 hours from GMT.

  • Sig Wave height 3.3ft
  • Swell Direction
  • Peak Period 4s
  • Average Period 4s
  • Wind
    25mph, 31mph gusts
  • Sea Temp 56°f
  • Aire Temp 53°f
  • Sea Pressure 1010.1mb
  • Nantucket Sound
  • Nantucket Sound

More Historic Weather Station data

Upgrade to MSW Pro to gain access to the past 30 days of data for over 8000 Wavebouys and Weather Stations around the globe.

Join Pro

Comparision Forecast

View Surf forecast
   
sáb 11/01 1:50 3.5ft 4s 4s 25 31 mph 1010.1mb 56f 53f
12:50 3.5ft 4s 4s 25 31 mph 1011.1mb 56f 53f
vie 10/31 11:50 3.5ft 4s 4s 27 31 mph 1011.3mb 56f 53f
10:50 3.5ft 4s 4s 25 29 mph 1012.6mb 56f 53f
9:50 3.5ft 4s 4s 27 31 mph 1012.1mb 56f 53f
8:50 3.5ft 4s 4s 25 29 mph 1013.2mb 56f 53f
7:50 3ft 4s 4s 25 29 mph 1013.3mb 57f 53f
6:50 3ft 4s 4s 22 27 mph 1013.8mb 57f 53f
5:50 3ft 4s 4s 25 29 mph 1013.5mb 57f 53f
4:50 3.5ft 4s 4s 22 27 mph 1013.7mb 57f 53f
3:50 2.5ft 4s 4s 22 27 mph 1013.2mb 57f 53f
2:50 2.5ft 4s 4s 20 25 mph 1013.4mb 57f 53f
1:50 2ft 4s 4s 18 22 mph 1014.3mb 57f 53f
12:50 2ft 4s 3s 18 20 mph 1014.7mb 57f 53f
11:50 1.6ft 4s 3s 16 18 mph 1015.4mb 56f 53f
10:50 1.6ft 3s 3s 16 20 mph 1015.5mb 56f 54f
9:50 1.6ft 3s 3s 18 22 mph 1015.3mb 56f 53f
8:50 1.6ft 3s 3s 18 20 mph 1015.8mb 56f 53f
7:50 1.3ft 3s 3s 16 18 mph 1015.5mb 57f 53f
6:50 1ft 2s 3s 16 18 mph 1015mb 57f 53f
5:50 1ft 2s 3s 11 13 mph 1015.1mb 57f 54f
4:50 1ft 7s 3s 11 16 mph 1014.7mb 57f 54f
3:50 1ft 3s 3s 9 13 mph 1014.6mb 57f 54f
2:50 0.7ft  -  3s 13 16 mph 1014.4mb 57f 54f
1:50 0.7ft  -  3s 11 13 mph 1014.6mb 56f 54f
12:50 0.7ft  -  3s 9 11 mph 1014.8mb 56f 54f
jue 10/30 11:50 0.7ft  -  3s 9 11 mph 1015mb 56f 55f
10:50 0.7ft  -  4s 11 13 mph 1015mb 56f 55f
9:50 0.7ft  -  3s 4
mph
1014.8mb 57f 55f
8:50 0.7ft  -  3s 7 9 mph 1014.3mb 57f 54f
7:50 1ft 3s 3s 11 13 mph 1014mb 58f 54f
6:50 1.3ft 5s 3s 7 9 mph 1013.6mb 58f 56f
5:50 1ft 3s 3s 11 16 mph 1013mb 59f 58f
4:50 1ft 8s 4s 7
mph
1012.8mb 59f 58f
3:50 0.7ft  -  4s 7 9 mph 1012.8mb 59f 58f
2:50 0.7ft  -  4s 7 9 mph 1012.6mb 59f 57f
1:50 0.7ft  -  3s 4 7 mph 1013mb 58f 56f
12:50 1ft 2s 3s 7 9 mph 1013.1mb 57f 55f
11:50 1ft 3s 3s 7
mph
1013.6mb 57f 55f
10:50 1.3ft 3s 3s 9 11 mph 1013.8mb 56f 54f
9:50 1.3ft 3s 3s 11
mph
1013.9mb 56f 53f
8:50 1.3ft 3s 3s 11 13 mph 1013.5mb 56f 53f
7:50 1.3ft 3s 3s 16 18 mph 1013mb 57f 53f
6:50 1.3ft 3s 3s 16 18 mph 1012.6mb 57f 53f
5:50 1.6ft 3s 3s 13 16 mph 1012.4mb 58f 54f
4:50 1.6ft 3s 3s 18 20 mph 1011.5mb 58f 54f
3:50 1.6ft 3s 3s 16 20 mph 1011.2mb 58f 55f
2:50 1.3ft 3s 3s 18 22 mph 1011.2mb 58f 56f
1:50 2.5ft 4s 3s 11 16 mph 1011.5mb 58f 55f
12:50 2ft 3s 3s 20 25 mph 1011.3mb 58f 55f
mié 10/29 11:50 1ft 5s 3s 18 22 mph 1010.7mb 57f 58f
10:50 1ft 3s 3s 7 9 mph 1010.3mb 57f 59f
9:50 1ft 5s 3s 9 11 mph 1009.9mb 57f 60f
8:50 1ft 2s 3s 11 16 mph 1010mb 57f 60f
7:50 1ft 3s 3s 13 16 mph 1009.7mb 58f 61f
6:50 1ft 3s 3s 11
mph
1009.9mb 58f 61f
5:50 1.3ft 3s 3s 13 16 mph 1009.3mb 59f 62f
4:50 1.6ft 3s 3s 16 18 mph 1009mb 59f 62f
3:50 1.6ft 3s 3s 16 18 mph 1009.3mb 59f 62f
2:50 1.6ft 3s  -  18 20 mph 1009.4mb 59f 63f
1:50 1.6ft 3s 3s 18 20 mph 1009.8mb 58f 63f
12:50 1.6ft 3s 3s 18 20 mph 1010.5mb 58f 63f
11:50 1.6ft 3s 3s 18 20 mph 1011.4mb 57f 62f
10:50 1.6ft 3s 3s 16 20 mph 1011.9mb 57f 62f
9:50 1.6ft 3s 3s 18 20 mph 1012.3mb 57f 62f
8:50 1.6ft 3s 3s 18 20 mph 1012.6mb 57f 62f
7:50 1.6ft 3s 3s 18 20 mph 1012.3mb 57f 61f
6:50 1.3ft 3s 3s 16 20 mph 1012.5mb 57f 62f
5:50 1.3ft 3s 3s 16 18 mph 1012.9mb 58f 61f
4:50 1.3ft 3s 3s 13 16 mph 1013.1mb 58f 61f
3:50 1.3ft 3s 3s 13 16 mph 1013.4mb 58f 62f
2:50 1.3ft 3s 3s 16 18 mph 1013.9mb 58f 62f
1:50 1ft 3s 3s 11 13 mph 1014.2mb 58f 62f
12:50 1ft 3s 3s 13
mph
1013.9mb 57f 62f
mar 10/28 11:50 1.3ft 3s 3s 13 16 mph 1014.3mb 57f 61f
10:50 1.3ft 3s 3s 13 16 mph 1014.7mb 57f 61f
9:50 1.3ft 5s 3s 13 16 mph 1015mb 57f 60f
8:50 1ft 3s 3s 11 16 mph 1015.1mb 57f 60f
7:50 1ft 3s 3s 13 18 mph 1015.3mb 57f 60f
6:50 1.3ft 3s 3s 13 16 mph 1015.6mb 57f 60f
5:50 1ft 3s 3s 13 16 mph 1015.7mb 58f 60f
4:50 1.3ft 3s 3s 13 16 mph 1015.8mb 58f 60f
3:50 1.3ft 3s 3s 16 18 mph 1016mb 59f 61f
2:50 1ft 3s 3s 13 18 mph 1016.2mb 59f 61f
1:50 1ft 3s 3s 11 13 mph 1016.6mb 59f 61f
12:50 0.7ft  -  3s 11 13 mph 1017.3mb 58f 61f
11:50 0.7ft  -  3s 9 11 mph 1018.1mb 57f 60f
10:50 0.7ft  -  3s 9 11 mph 1018.5mb 57f 58f
9:50 0.7ft  -  4s 11
mph
1018.8mb 56f 57f
8:50 0.7ft  -  4s 9
mph
1018.8mb 56f 56f
7:50 0.7ft  -  3s 4
mph
1018.4mb 56f 56f